Time;durP1;ratioP1;P1;durP2;ratioP2;P2;SDS_P1;SDS_P2;PMS_P1;PMS_P2;Temp;Humidity;BMP_temperature;BMP_pressure;BME280_temperature;BME280_humidity;BME280_pressure;Samples;Min_cycle;Max_cycle;Signal;HPM_P1;HPM_P2
2021/09/06 00:01:13;;;;;;;1.40;1.27;;;14.60;98.00;;;;;;5112161;28;20490;-71
2021/09/06 00:03:42;;;;;;;1.30;1.27;;;14.50;98.00;;;;;;5110934;28;20933;-70
2021/09/06 00:06:11;;;;;;;1.20;1.13;;;14.60;98.00;;;;;;5110900;28;20458;-71
2021/09/06 00:08:38;;;;;;;1.50;1.30;;;14.40;98.00;;;;;;5112130;28;20562;-70
2021/09/06 00:11:06;;;;;;;1.70;1.63;;;14.50;98.00;;;;;;5112104;28;20487;-70
2021/09/06 00:13:34;;;;;;;2.37;1.40;;;14.50;98.00;;;;;;5112105;28;20482;-69
2021/09/06 00:16:01;;;;;;;2.63;1.53;;;14.40;98.00;;;;;;5112163;28;20570;-69
2021/09/06 00:18:28;;;;;;;1.47;1.33;;;14.40;98.00;;;;;;5111832;28;20857;-69
2021/09/06 00:20:57;;;;;;;6.20;1.50;;;14.30;98.00;;;;;;5112076;28;20489;-71
2021/09/06 00:23:27;;;;;;;3.03;1.60;;;14.40;98.00;;;;;;5112174;28;20459;-69
2021/09/06 00:26:01;;;;;;;2.30;1.70;;;14.40;98.00;;;;;;5111557;28;20463;-69
2021/09/06 00:28:28;;;;;;;1.60;1.43;;;14.40;98.00;;;;;;5111081;28;20545;-69
2021/09/06 00:30:55;;;;;;;2.13;1.70;;;14.50;98.00;;;;;;5111107;28;20949;-70
2021/09/06 00:33:23;;;;;;;1.73;1.30;;;14.40;98.00;;;;;;5111100;28;20482;-69
2021/09/06 00:35:50;;;;;;;2.33;2.00;;;14.30;98.00;;;;;;5111346;28;20510;-70
2021/09/06 00:38:19;;;;;;;2.17;1.47;;;14.40;98.00;;;;;;5112043;28;20479;-70
2021/09/06 00:40:49;;;;;;;2.07;1.50;;;14.30;98.00;;;;;;5112087;28;20549;-71
2021/09/06 00:43:16;;;;;;;1.83;1.43;;;14.30;98.00;;;;;;5112127;28;20447;-71
2021/09/06 00:45:44;;;;;;;1.50;1.40;;;14.20;98.00;;;;;;5111693;28;20455;-69
2021/09/06 00:48:14;;;;;;;2.67;1.40;;;14.50;98.00;;;;;;5111416;28;20447;-70
2021/09/06 00:50:42;;;;;;;1.97;1.40;;;14.40;98.00;;;;;;5111762;28;20512;-70
2021/09/06 00:53:10;;;;;;;1.63;1.50;;;14.50;98.00;;;;;;5111630;28;20454;-70
2021/09/06 00:55:37;;;;;;;1.97;1.40;;;14.40;98.00;;;;;;5111425;28;20536;-70
2021/09/06 00:58:06;;;;;;;3.37;1.33;;;14.10;98.00;;;;;;5115153;28;20459;-70
2021/09/06 01:00:33;;;;;;;1.50;1.30;;;14.10;98.00;;;;;;5115162;28;20549;-70
2021/09/06 01:03:01;;;;;;;2.03;1.50;;;14.00;98.00;;;;;;5115073;28;20458;-70
2021/09/06 01:05:29;;;;;;;5.80;1.60;;;13.90;98.00;;;;;;5115404;28;20537;-70
2021/09/06 01:07:56;;;;;;;1.70;1.27;;;13.90;98.00;;;;;;5115242;28;21091;-70
2021/09/06 01:10:24;;;;;;;1.30;1.20;;;13.80;98.00;;;;;;5115183;28;20453;-69
2021/09/06 01:12:51;;;;;;;2.10;1.50;;;13.80;98.00;;;;;;5115191;28;20901;-70
2021/09/06 01:15:19;;;;;;;2.17;1.70;;;14.00;98.00;;;;;;5115130;28;20863;-70
2021/09/06 01:17:47;;;;;;;1.60;1.30;;;13.90;98.00;;;;;;5115015;28;20504;-71
2021/09/06 01:20:14;;;;;;;2.30;1.80;;;13.80;98.00;;;;;;5115101;28;20491;-69
2021/09/06 01:22:42;;;;;;;1.60;1.20;;;13.90;98.00;;;;;;5115175;28;20494;-70
2021/09/06 01:25:10;;;;;;;1.60;1.53;;;13.90;98.00;;;;;;5115043;28;20511;-70
2021/09/06 01:27:38;;;;;;;4.50;2.70;;;13.80;98.00;;;;;;5114746;28;20543;-70
2021/09/06 01:30:07;;;;;;;2.00;1.40;;;13.80;98.00;;;;;;5114342;28;20494;-69
2021/09/06 01:32:34;;;;;;;1.20;1.20;;;13.70;98.00;;;;;;5114754;28;20454;-69
2021/09/06 01:35:02;;;;;;;2.27;1.60;;;13.60;98.00;;;;;;5114615;28;20498;-70
2021/09/06 01:37:29;;;;;;;1.53;1.23;;;13.50;98.00;;;;;;5114792;28;20526;-71
2021/09/06 01:39:56;;;;;;;2.47;2.00;;;13.40;98.00;;;;;;5114780;28;20507;-70
2021/09/06 01:42:23;;;;;;;2.30;1.47;;;13.50;98.00;;;;;;5114833;28;20498;-71
2021/09/06 01:44:51;;;;;;;1.80;1.53;;;13.50;98.00;;;;;;5114468;28;20994;-69
2021/09/06 01:47:18;;;;;;;1.70;1.37;;;13.50;98.00;;;;;;5114805;28;20485;-69
2021/09/06 01:49:45;;;;;;;2.43;1.93;;;13.40;98.00;;;;;;5114624;28;20528;-70
2021/09/06 01:52:12;;;;;;;2.27;1.27;;;13.50;98.00;;;;;;5114432;28;20486;-69
2021/09/06 01:54:39;;;;;;;1.60;1.40;;;13.40;98.00;;;;;;5114525;28;20462;-71
2021/09/06 01:57:06;;;;;;;2.70;1.70;;;13.40;98.00;;;;;;5114573;28;20532;-69
2021/09/06 01:59:33;;;;;;;1.40;1.20;;;13.40;98.00;;;;;;5114237;28;20479;-70
2021/09/06 02:02:03;;;;;;;1.50;1.40;;;13.30;98.00;;;;;;5114469;28;20501;-69
2021/09/06 02:04:30;;;;;;;1.60;1.40;;;13.40;98.00;;;;;;5113316;28;20982;-69
2021/09/06 02:06:57;;;;;;;2.87;1.70;;;13.30;98.00;;;;;;5114479;28;20498;-69
2021/09/06 02:09:24;;;;;;;2.40;1.50;;;13.20;98.00;;;;;;5113494;28;20486;-69
2021/09/06 02:11:51;;;;;;;1.37;1.10;;;13.20;98.00;;;;;;5113972;28;20733;-70
2021/09/06 02:14:18;;;;;;;1.70;1.63;;;13.10;98.00;;;;;;5113864;28;20855;-70
2021/09/06 02:16:45;;;;;;;2.53;1.27;;;13.10;98.00;;;;;;5113993;28;20481;-69
2021/09/06 02:19:13;;;;;;;2.07;1.27;;;13.00;98.00;;;;;;5113778;28;20511;-71
2021/09/06 02:21:40;;;;;;;3.63;1.67;;;13.10;98.00;;;;;;5113789;28;20812;-70
2021/09/06 02:24:08;;;;;;;1.50;1.20;;;13.20;98.00;;;;;;5112664;28;20513;-69
2021/09/06 02:26:36;;;;;;;2.10;1.53;;;13.10;98.00;;;;;;5112592;28;20494;-69
2021/09/06 02:29:04;;;;;;;2.10;1.27;;;13.10;98.00;;;;;;5113497;28;20883;-70
2021/09/06 02:31:31;;;;;;;2.30;1.53;;;13.10;98.00;;;;;;5113485;28;20576;-70
2021/09/06 02:33:59;;;;;;;1.77;1.30;;;12.90;98.00;;;;;;5113632;28;20487;-70
2021/09/06 02:36:27;;;;;;;2.00;1.50;;;12.90;98.00;;;;;;5113548;28;20520;-70
2021/09/06 02:38:55;;;;;;;1.57;1.30;;;13.00;98.00;;;;;;5113366;28;20461;-69
2021/09/06 02:41:22;;;;;;;1.90;1.30;;;13.00;98.00;;;;;;5113619;28;20517;-70
2021/09/06 02:43:49;;;;;;;1.67;1.20;;;13.00;98.00;;;;;;5113476;28;20503;-70
2021/09/06 02:46:16;;;;;;;1.20;1.00;;;13.00;98.00;;;;;;5113447;28;20941;-69
2021/09/06 02:48:43;;;;;;;1.50;1.20;;;12.90;98.00;;;;;;5113366;28;20464;-71
2021/09/06 02:51:10;;;;;;;2.90;1.33;;;12.90;98.00;;;;;;5113378;28;20511;-70
2021/09/06 02:53:38;;;;;;;2.70;1.80;;;13.00;98.00;;;;;;5113296;28;20858;-70
2021/09/06 02:56:05;;;;;;;1.73;1.30;;;13.00;98.00;;;;;;5113168;28;20489;-70
2021/09/06 02:58:32;;;;;;;2.43;1.60;;;12.80;98.00;;;;;;5113217;28;20458;-69
2021/09/06 03:01:01;;;;;;;1.40;1.40;;;12.80;98.00;;;;;;5113154;28;20521;-70
2021/09/06 03:03:28;;;;;;;1.50;1.20;;;12.80;98.00;;;;;;5113063;28;20493;-71
2021/09/06 03:05:56;;;;;;;2.13;1.40;;;12.70;98.00;;;;;;5112928;28;20489;-70
2021/09/06 03:08:23;;;;;;;1.30;1.20;;;12.80;98.00;;;;;;5113068;28;20485;-71
2021/09/06 03:10:51;;;;;;;1.50;1.33;;;12.90;98.00;;;;;;5113015;28;20846;-69
2021/09/06 03:13:18;;;;;;;1.30;1.30;;;12.80;98.00;;;;;;5112961;28;20457;-69
2021/09/06 03:15:45;;;;;;;1.83;1.67;;;12.70;98.00;;;;;;5113030;28;20948;-69
2021/09/06 03:18:12;;;;;;;3.17;1.73;;;12.60;98.00;;;;;;5112802;28;20569;-69
2021/09/06 03:20:39;;;;;;;1.40;1.20;;;12.60;98.00;;;;;;5113013;28;20900;-70
2021/09/06 03:23:06;;;;;;;1.53;1.20;;;12.70;98.00;;;;;;5112929;28;20509;-69
2021/09/06 03:25:33;;;;;;;2.60;1.40;;;12.70;98.00;;;;;;5112986;28;20486;-69
2021/09/06 03:28:02;;;;;;;3.77;1.60;;;12.70;98.00;;;;;;5112687;28;20455;-71
2021/09/06 03:30:29;;;;;;;1.20;1.00;;;12.50;98.00;;;;;;5112606;28;20461;-69
2021/09/06 03:33:00;;;;;;;1.30;1.20;;;12.60;98.00;;;;;;5112364;28;20582;-69
2021/09/06 03:35:27;;;;;;;2.97;1.63;;;12.60;98.00;;;;;;5112498;28;20966;-69
2021/09/06 03:37:54;;;;;;;1.90;1.50;;;12.60;98.00;;;;;;5112459;28;20484;-70
2021/09/06 03:40:21;;;;;;;1.20;1.20;;;12.50;98.00;;;;;;5112297;28;20493;-70
2021/09/06 03:42:49;;;;;;;1.80;1.60;;;12.40;98.00;;;;;;5112405;28;20502;-70
2021/09/06 03:45:17;;;;;;;2.03;1.50;;;12.60;98.00;;;;;;5112389;28;20458;-70
2021/09/06 03:47:44;;;;;;;2.33;1.60;;;12.50;98.00;;;;;;5112420;28;20519;-70
2021/09/06 03:50:12;;;;;;;2.90;1.87;;;12.30;98.00;;;;;;5112123;28;20524;-70
2021/09/06 03:52:39;;;;;;;1.30;1.30;;;12.40;98.00;;;;;;5112369;28;21043;-69
2021/09/06 03:55:08;;;;;;;2.80;1.37;;;12.40;98.00;;;;;;5112296;28;20523;-70
2021/09/06 03:57:35;;;;;;;1.40;1.30;;;12.30;98.00;;;;;;5112262;28;20875;-71
2021/09/06 04:00:03;;;;;;;1.30;1.10;;;12.20;98.00;;;;;;5110868;28;20480;-72
2021/09/06 04:02:31;;;;;;;1.40;1.30;;;12.20;98.00;;;;;;5112146;28;21139;-70
2021/09/06 04:04:59;;;;;;;1.30;1.30;;;12.20;98.00;;;;;;5112016;28;20457;-69
2021/09/06 04:07:27;;;;;;;1.30;1.13;;;12.20;98.00;;;;;;5112275;28;20444;-70
2021/09/06 04:09:54;;;;;;;3.10;1.20;;;12.20;98.00;;;;;;5112061;28;20971;-70
2021/09/06 04:12:21;;;;;;;2.27;1.40;;;12.20;98.00;;;;;;5112094;28;20456;-70
2021/09/06 04:14:50;;;;;;;1.50;1.40;;;12.10;98.00;;;;;;5111879;28;20529;-70
2021/09/06 04:17:17;;;;;;;1.40;1.10;;;12.10;98.00;;;;;;5111948;28;20481;-70
2021/09/06 04:19:46;;;;;;;1.77;1.20;;;12.00;98.00;;;;;;5111951;28;20483;-69
2021/09/06 04:22:13;;;;;;;1.67;1.47;;;12.20;98.00;;;;;;5111789;28;20514;-69
2021/09/06 04:24:40;;;;;;;1.63;1.57;;;12.30;98.00;;;;;;5111955;28;20945;-70
2021/09/06 04:27:11;;;;;;;1.50;1.30;;;12.30;98.00;;;;;;5110915;28;20980;-71
2021/09/06 04:29:38;;;;;;;1.33;1.30;;;12.10;98.00;;;;;;5110470;28;21027;-69
2021/09/06 04:32:08;;;;;;;3.60;1.80;;;12.10;98.00;;;;;;5114129;28;20534;-71
2021/09/06 04:34:35;;;;;;;2.00;1.47;;;12.10;98.00;;;;;;5114983;28;20871;-71
2021/09/06 04:37:05;;;;;;;2.13;1.33;;;12.20;98.00;;;;;;5116043;28;20545;-70
2021/09/06 04:39:32;;;;;;;2.27;1.50;;;12.20;98.00;;;;;;5115987;28;20454;-70
2021/09/06 04:42:00;;;;;;;1.20;1.10;;;12.10;98.00;;;;;;5116107;28;20804;-70
2021/09/06 04:44:27;;;;;;;1.50;1.40;;;12.20;98.00;;;;;;5116168;28;20453;-70
2021/09/06 04:46:54;;;;;;;1.50;1.33;;;12.40;98.00;;;;;;5114733;28;20453;-71
2021/09/06 04:49:21;;;;;;;1.83;1.30;;;12.20;98.00;;;;;;5115944;28;20462;-70
2021/09/06 04:51:48;;;;;;;1.37;1.17;;;12.10;98.00;;;;;;5115603;28;20464;-70
2021/09/06 04:54:17;;;;;;;1.50;1.30;;;12.00;98.00;;;;;;5115352;28;20517;-69
2021/09/06 04:56:44;;;;;;;1.77;1.23;;;12.00;98.00;;;;;;5115706;28;20518;-69
2021/09/06 04:59:13;;;;;;;3.93;1.50;;;12.20;98.00;;;;;;5115398;28;20912;-70
2021/09/06 05:01:40;;;;;;;1.70;1.40;;;12.20;98.00;;;;;;5115269;28;20462;-70
2021/09/06 05:04:10;;;;;;;1.40;1.20;;;12.20;98.00;;;;;;5115387;28;20566;-70
2021/09/06 05:06:37;;;;;;;1.30;1.20;;;12.10;98.00;;;;;;5114225;28;20455;-69
2021/09/06 05:09:04;;;;;;;1.30;1.20;;;12.00;98.00;;;;;;5115162;28;20458;-70
2021/09/06 05:11:32;;;;;;;1.70;1.50;;;11.90;98.00;;;;;;5115261;28;20871;-71
2021/09/06 05:13:59;;;;;;;1.20;1.10;;;11.90;98.00;;;;;;5115127;28;20483;-70
2021/09/06 05:16:27;;;;;;;1.40;1.20;;;11.90;98.00;;;;;;5115137;28;20541;-69
2021/09/06 05:18:54;;;;;;;1.20;1.10;;;12.00;98.00;;;;;;5114841;28;20522;-70
2021/09/06 05:21:21;;;;;;;1.30;1.17;;;12.00;98.00;;;;;;5115086;28;20889;-71
2021/09/06 05:23:48;;;;;;;1.60;1.30;;;12.00;98.00;;;;;;5114897;28;20491;-70
2021/09/06 05:26:16;;;;;;;1.40;1.17;;;12.00;98.00;;;;;;5114966;28;20523;-70
2021/09/06 05:28:44;;;;;;;1.50;1.30;;;11.90;98.00;;;;;;5114677;28;20487;-70
2021/09/06 05:31:14;;;;;;;1.30;1.20;;;11.90;98.00;;;;;;5114873;28;20478;-71
2021/09/06 05:33:41;;;;;;;1.60;1.10;;;11.90;98.00;;;;;;5114620;28;20543;-70
2021/09/06 05:36:10;;;;;;;1.53;1.50;;;11.90;98.00;;;;;;5114911;28;20478;-70
2021/09/06 05:38:37;;;;;;;1.80;1.70;;;12.10;98.00;;;;;;5114632;28;20487;-70
2021/09/06 05:41:04;;;;;;;2.50;1.50;;;12.10;98.00;;;;;;5114800;28;20497;-69
2021/09/06 05:43:31;;;;;;;1.30;1.20;;;12.10;98.00;;;;;;5113228;28;20488;-70
2021/09/06 05:46:00;;;;;;;3.87;1.63;;;12.00;98.00;;;;;;5114716;28;20510;-69
2021/09/06 05:48:28;;;;;;;1.80;1.40;;;12.00;98.00;;;;;;5114799;28;20455;-69
2021/09/06 05:50:55;;;;;;;2.00;1.50;;;12.10;98.00;;;;;;5114009;28;20456;-68
2021/09/06 05:53:22;;;;;;;1.80;1.63;;;12.10;98.00;;;;;;5114569;28;20466;-69
2021/09/06 05:55:49;;;;;;;2.07;1.47;;;12.10;98.00;;;;;;5114651;28;21149;-71
2021/09/06 05:58:17;;;;;;;1.40;1.20;;;12.10;98.00;;;;;;5114527;28;20570;-70
2021/09/06 06:00:44;;;;;;;1.80;1.47;;;12.30;98.00;;;;;;5114633;28;20486;-70
2021/09/06 06:03:19;;;;;;;1.63;1.50;;;12.40;98.00;;;;;;5114575;28;20499;-69
2021/09/06 06:05:47;;;;;;;1.20;1.00;;;12.60;98.00;;;;;;5112931;28;20454;-69
2021/09/06 06:08:14;;;;;;;1.30;1.10;;;12.70;98.00;;;;;;5114148;28;20511;-71
2021/09/06 06:10:41;;;;;;;1.23;1.20;;;12.60;98.00;;;;;;5114245;28;20454;-71
2021/09/06 06:13:08;;;;;;;1.87;1.50;;;12.60;98.00;;;;;;5113776;28;20501;-71
2021/09/06 06:15:35;;;;;;;2.27;1.40;;;12.60;98.00;;;;;;5113972;28;20522;-70
2021/09/06 06:18:02;;;;;;;2.40;1.43;;;12.60;98.00;;;;;;5113965;28;20579;-71
2021/09/06 06:20:31;;;;;;;2.30;1.50;;;12.70;98.00;;;;;;5113779;28;20517;-70
2021/09/06 06:22:58;;;;;;;1.97;1.30;;;12.90;98.00;;;;;;5113798;28;20491;-70
2021/09/06 06:25:26;;;;;;;1.50;1.37;;;13.00;98.00;;;;;;5113822;28;20496;-70
2021/09/06 06:27:53;;;;;;;1.50;1.40;;;13.10;98.00;;;;;;5095802;28;20553;-70
2021/09/06 06:30:22;;;;;;;1.43;1.37;;;13.30;98.00;;;;;;5113360;28;20815;-70
2021/09/06 06:32:50;;;;;;;1.77;1.53;;;13.40;98.00;;;;;;5112448;28;20457;-71
2021/09/06 06:35:18;;;;;;;2.90;1.93;;;13.50;98.00;;;;;;5113593;28;20470;-70
2021/09/06 06:37:46;;;;;;;1.73;1.30;;;13.50;98.00;;;;;;5112236;28;20481;-71
2021/09/06 06:40:14;;;;;;;2.43;1.80;;;13.50;98.00;;;;;;5113360;28;20482;-73
2021/09/06 06:42:42;;;;;;;3.50;1.97;;;13.60;98.00;;;;;;5113576;28;20511;-70
2021/09/06 06:45:09;;;;;;;1.50;1.50;;;13.60;98.00;;;;;;5112253;28;20531;-72
2021/09/06 06:47:37;;;;;;;1.23;1.20;;;13.60;98.00;;;;;;5113420;28;20484;-71
2021/09/06 06:50:04;;;;;;;1.40;1.40;;;13.80;98.00;;;;;;5113325;28;20517;-71
2021/09/06 06:52:31;;;;;;;2.50;1.77;;;13.90;98.00;;;;;;5113126;28;20992;-72
2021/09/06 06:55:00;;;;;;;2.77;1.97;;;13.90;98.00;;;;;;5112809;28;20493;-71
2021/09/06 06:57:27;;;;;;;2.10;1.60;;;13.90;98.00;;;;;;5113199;28;20538;-72
2021/09/06 06:59:54;;;;;;;1.50;1.30;;;14.00;98.00;;;;;;5112928;28;20539;-70
2021/09/06 07:02:22;;;;;;;3.00;1.80;;;14.10;98.00;;;;;;5113194;28;20494;-71
2021/09/06 07:04:49;;;;;;;1.50;1.50;;;14.10;98.00;;;;;;5113046;28;20491;-71
2021/09/06 07:07:16;;;;;;;1.30;1.27;;;14.10;98.00;;;;;;5113197;28;20810;-71
2021/09/06 07:09:44;;;;;;;1.60;1.50;;;14.10;98.00;;;;;;5084087;28;20503;-70
2021/09/06 07:12:12;;;;;;;1.60;1.40;;;14.10;98.00;;;;;;5092595;28;20946;-71
2021/09/06 07:14:40;;;;;;;1.47;1.30;;;14.30;98.00;;;;;;5099271;28;21099;-72
2021/09/06 07:17:07;;;;;;;1.73;1.50;;;14.40;98.00;;;;;;5100144;28;20511;-71
2021/09/06 07:19:34;;;;;;;1.40;1.40;;;14.50;98.00;;;;;;5091360;28;20887;-68
2021/09/06 07:22:01;;;;;;;2.50;1.73;;;14.70;98.00;;;;;;5108654;28;20509;-67
2021/09/06 07:24:28;;;;;;;2.57;1.70;;;14.80;98.00;;;;;;5100599;28;20459;-70
2021/09/06 07:26:55;;;;;;;2.57;1.77;;;14.90;98.00;;;;;;5099797;28;20547;-74
2021/09/06 07:29:23;;;;;;;1.97;1.60;;;15.10;98.00;;;;;;5109279;28;20463;-72
2021/09/06 07:31:51;;;;;;;2.03;1.70;;;15.20;98.00;;;;;;5099507;28;20478;-75
2021/09/06 07:34:18;;;;;;;3.30;1.97;;;15.40;98.00;;;;;;5097840;28;20484;-75
2021/09/06 07:36:45;;;;;;;2.40;1.60;;;15.50;98.00;;;;;;5098885;28;20525;-78
2021/09/06 07:39:16;;;;;;;2.13;1.70;;;15.60;98.00;;;;;;5089843;28;20549;-78
2021/09/06 07:41:43;;;;;;;2.47;2.23;;;15.80;98.00;;;;;;5089859;28;20465;-77
2021/09/06 07:44:11;;;;;;;2.07;1.77;;;15.90;98.00;;;;;;5088790;28;20514;-79
2021/09/06 07:46:40;;;;;;;1.90;1.53;;;16.00;98.00;;;;;;5107745;28;20491;-76
2021/09/06 07:49:08;;;;;;;1.83;1.63;;;16.00;98.00;;;;;;5098230;28;20546;-72
2021/09/06 07:51:35;;;;;;;1.20;1.20;;;16.30;98.00;;;;;;5070872;28;20878;-73
2021/09/06 07:54:02;;;;;;;3.00;1.43;;;16.80;98.00;;;;;;5099431;28;20491;-72
2021/09/06 07:56:29;;;;;;;1.93;1.70;;;17.10;98.00;;;;;;5109880;28;20953;-72
2021/09/06 07:58:56;;;;;;;1.57;1.27;;;17.40;98.00;;;;;;5111413;28;20552;-71
2021/09/06 08:01:23;;;;;;;2.00;1.77;;;17.40;98.00;;;;;;5111113;28;20467;-71
2021/09/06 08:03:52;;;;;;;2.50;1.57;;;17.40;98.00;;;;;;5112433;28;20494;-70
2021/09/06 08:06:19;;;;;;;1.60;1.40;;;17.30;98.00;;;;;;5111189;28;20961;-71
2021/09/06 08:08:46;;;;;;;2.07;1.70;;;17.40;98.00;;;;;;5112145;28;20447;-70
2021/09/06 08:11:13;;;;;;;1.67;1.53;;;17.50;98.00;;;;;;5112542;28;20509;-71
2021/09/06 08:13:40;;;;;;;2.80;1.97;;;17.60;98.00;;;;;;5111327;28;20479;-71
2021/09/06 08:16:07;;;;;;;2.30;1.70;;;17.80;98.00;;;;;;5111365;28;20531;-71
2021/09/06 08:18:33;;;;;;;1.73;1.43;;;17.80;98.00;;;;;;5111354;28;20474;-72
2021/09/06 08:21:02;;;;;;;2.07;1.40;;;17.90;98.00;;;;;;5111241;28;20483;-67
2021/09/06 08:23:29;;;;;;;1.73;1.67;;;18.00;98.00;;;;;;5111226;28;20494;-72
2021/09/06 08:25:56;;;;;;;1.90;1.43;;;18.20;98.00;;;;;;5111201;28;20513;-71
2021/09/06 08:28:23;;;;;;;2.30;1.50;;;18.30;98.00;;;;;;5109938;28;20770;-70
2021/09/06 08:30:53;;;;;;;4.13;1.63;;;18.70;98.00;;;;;;5109862;28;20823;-70
2021/09/06 08:33:21;;;;;;;1.97;1.43;;;19.00;98.00;;;;;;5111186;28;20534;-70
2021/09/06 08:35:48;;;;;;;1.70;1.50;;;19.30;98.00;;;;;;5110957;28;20490;-71
2021/09/06 08:38:18;;;;;;;3.30;2.00;;;19.60;98.00;;;;;;5110842;28;20511;-71
2021/09/06 08:40:46;;;;;;;2.73;2.07;;;19.70;98.00;;;;;;5111125;28;20455;-70
2021/09/06 08:43:13;;;;;;;1.73;1.70;;;19.80;98.00;;;;;;5111116;28;20451;-71
2021/09/06 08:45:40;;;;;;;2.23;1.97;;;19.90;98.00;;;;;;5111105;28;20455;-71
2021/09/06 08:48:08;;;;;;;1.83;1.77;;;20.00;98.00;;;;;;5111352;28;20486;-72
2021/09/06 08:50:35;;;;;;;3.30;2.10;;;20.10;98.00;;;;;;5111566;28;20451;-72
2021/09/06 08:53:05;;;;;;;2.73;1.77;;;20.30;98.00;;;;;;5110529;28;20454;-71
2021/09/06 08:55:33;;;;;;;2.17;1.73;;;20.40;98.00;;;;;;5110275;28;21038;-73
2021/09/06 08:58:00;;;;;;;2.83;1.93;;;20.50;98.00;;;;;;5111525;28;20603;-72
2021/09/06 09:00:29;;;;;;;3.00;2.17;;;20.70;98.00;;;;;;5111592;28;20498;-72
2021/09/06 09:02:57;;;;;;;2.00;1.73;;;20.90;98.00;;;;;;5111309;28;20462;-72
2021/09/06 09:05:24;;;;;;;1.50;1.50;;;21.00;98.00;;;;;;5111488;28;20451;-72
2021/09/06 09:07:58;;;;;;;2.80;1.90;;;21.10;98.00;;;;;;5111380;28;20458;-72
2021/09/06 09:10:27;;;;;;;3.00;2.07;;;21.20;98.00;;;;;;5110220;28;20458;-71
2021/09/06 09:13:06;;;;;;;2.20;1.80;;;21.30;98.00;;;;;;5111547;28;20490;-72
2021/09/06 09:15:33;;;;;;;2.90;2.00;;;21.50;98.00;;;;;;5111520;28;20458;-72
2021/09/06 09:18:01;;;;;;;1.90;1.70;;;21.70;98.00;;;;;;5113162;28;20478;-73
2021/09/06 09:20:39;;;;;;;2.80;1.90;;;21.90;98.00;;;;;;5114906;28;20466;-74
2021/09/06 09:23:07;;;;;;;2.00;1.83;;;22.00;98.00;;;;;;5115100;28;20482;-73
2021/09/06 09:25:34;;;;;;;2.07;1.60;;;22.20;98.00;;;;;;5115237;28;20856;-72
2021/09/06 09:28:03;;;;;;;1.90;1.70;;;22.40;98.00;;;;;;5114882;28;20487;-73
2021/09/06 09:30:32;;;;;;;2.73;1.87;;;22.60;98.00;;;;;;5114937;28;20470;-72
2021/09/06 09:33:07;;;;;;;3.00;2.10;;;22.80;98.00;;;;;;5115098;28;20542;-71
2021/09/06 09:35:34;;;;;;;2.90;2.00;;;23.00;98.00;;;;;;5114783;28;20450;-73
2021/09/06 09:38:02;;;;;;;3.43;2.13;;;23.20;98.00;;;;;;5114707;28;20930;-73
2021/09/06 09:40:33;;;;;;;3.03;2.37;;;23.40;97.40;;;;;;5113810;28;20455;-71
2021/09/06 09:43:00;;;;;;;3.70;2.30;;;23.40;98.00;;;;;;5113896;28;20546;-73
2021/09/06 09:45:29;;;;;;;3.43;2.27;;;23.60;97.00;;;;;;5107077;28;20984;-75
2021/09/06 09:47:57;;;;;;;2.77;1.83;;;23.80;96.70;;;;;;5107784;28;20459;-77
2021/09/06 09:50:26;;;;;;;2.97;2.47;;;23.90;95.90;;;;;;5090976;28;20459;-75
2021/09/06 09:52:55;;;;;;;3.10;2.30;;;24.00;92.70;;;;;;5099473;28;20736;-73
2021/09/06 09:55:24;;;;;;;3.90;2.50;;;24.10;93.00;;;;;;5109275;28;20459;-74
2021/09/06 09:57:51;;;;;;;3.90;2.30;;;24.30;91.00;;;;;;5084339;28;20494;-73
2021/09/06 10:00:19;;;;;;;4.57;2.87;;;24.50;90.80;;;;;;5092740;28;20491;-75
2021/09/06 10:02:52;;;;;;;3.73;2.40;;;24.70;92.20;;;;;;5100982;28;20487;-73
2021/09/06 10:05:24;;;;;;;3.40;2.17;;;24.90;89.80;;;;;;5109127;28;20537;-72
2021/09/06 10:07:53;;;;;;;4.60;2.63;;;25.00;87.70;;;;;;5108897;28;20936;-71
2021/09/06 10:10:22;;;;;;;4.23;2.17;;;25.20;87.80;;;;;;5108339;28;20494;-72
2021/09/06 10:13:01;;;;;;;4.00;2.63;;;25.30;87.60;;;;;;5100105;28;20960;-71
2021/09/06 10:15:28;;;;;;;4.40;2.67;;;25.40;87.40;;;;;;5094806;28;21030;-75
2021/09/06 10:17:57;;;;;;;3.43;2.13;;;25.50;87.50;;;;;;5106977;28;20511;-71
2021/09/06 10:20:26;;;;;;;3.10;2.40;;;25.80;87.20;;;;;;5094279;28;20535;-71
2021/09/06 10:23:04;;;;;;;6.17;2.57;;;25.90;87.80;;;;;;5100295;28;21873;-69
2021/09/06 10:25:34;;;;;;;5.23;2.90;;;26.00;87.80;;;;;;5104228;28;20463;-71
2021/09/06 10:28:04;;;;;;;3.70;2.40;;;26.20;85.30;;;;;;5096001;28;20542;-74
2021/09/06 10:30:37;;;;;;;4.93;2.97;;;26.30;87.20;;;;;;5094885;28;20495;-72
2021/09/06 10:33:07;;;;;;;3.40;2.50;;;26.30;86.40;;;;;;5105003;28;20459;-74
2021/09/06 10:35:34;;;;;;;3.23;2.40;;;26.40;85.10;;;;;;5099661;28;20467;-73
2021/09/06 10:38:07;;;;;;;3.70;2.50;;;26.60;84.70;;;;;;5103565;28;20521;-73
2021/09/06 10:40:35;;;;;;;3.70;2.30;;;26.70;84.00;;;;;;5098661;28;20897;-72
2021/09/06 10:43:16;;;;;;;3.80;2.40;;;26.70;83.90;;;;;;5099903;28;20544;-72
2021/09/06 10:45:44;;;;;;;5.10;2.77;;;26.80;81.20;;;;;;5104428;28;20984;-75
2021/09/06 10:48:17;;;;;;;2.70;2.33;;;26.90;82.40;;;;;;5108138;28;20497;-73
2021/09/06 10:50:45;;;;;;;5.63;2.90;;;27.00;83.50;;;;;;5102356;28;20949;-74
2021/09/06 10:53:17;;;;;;;4.30;2.93;;;27.10;81.90;;;;;;5107236;28;20526;-74
2021/09/06 10:55:47;;;;;;;5.10;2.60;;;27.20;82.50;;;;;;5108455;28;20565;-73
2021/09/06 10:58:14;;;;;;;3.90;2.30;;;27.40;81.50;;;;;;5090555;28;20451;-74
2021/09/06 11:00:41;;;;;;;4.97;2.20;;;27.60;80.90;;;;;;5099808;28;20511;-74
2021/09/06 11:03:08;;;;;;;4.00;2.27;;;27.70;80.60;;;;;;5099794;28;20977;-75
2021/09/06 11:05:37;;;;;;;4.33;2.60;;;27.90;78.50;;;;;;5099943;28;20479;-74
2021/09/06 11:08:06;;;;;;;4.77;2.57;;;28.00;79.80;;;;;;5092805;28;20499;-75
2021/09/06 11:10:33;;;;;;;3.03;2.33;;;28.20;80.00;;;;;;5100438;28;20455;-75
2021/09/06 11:13:10;;;;;;;3.23;2.23;;;28.10;78.60;;;;;;5100809;28;20840;-73
2021/09/06 11:15:37;;;;;;;2.73;2.20;;;27.90;79.30;;;;;;5092287;28;20890;-77
2021/09/06 11:18:06;;;;;;;3.20;2.33;;;27.40;78.30;;;;;;5100427;28;20513;-73
2021/09/06 11:20:38;;;;;;;6.40;2.50;;;27.70;79.00;;;;;;5099958;28;20544;-74
2021/09/06 11:23:08;;;;;;;2.07;1.97;;;27.80;78.80;;;;;;5092457;28;20459;-72
2021/09/06 11:25:38;;;;;;;3.67;2.60;;;27.70;79.80;;;;;;5091162;28;20511;-73
2021/09/06 11:28:07;;;;;;;3.80;2.50;;;27.50;80.00;;;;;;5099411;28;20459;-74
2021/09/06 11:30:36;;;;;;;3.10;2.13;;;27.30;79.80;;;;;;5108402;28;20490;-74
2021/09/06 11:33:05;;;;;;;4.57;2.77;;;27.10;80.20;;;;;;5106661;28;20447;-74
2021/09/06 11:35:33;;;;;;;3.87;2.60;;;27.10;79.20;;;;;;5098955;28;20460;-75
2021/09/06 11:38:00;;;;;;;3.23;2.50;;;27.40;78.50;;;;;;5106953;28;20804;-75
2021/09/06 11:40:29;;;;;;;4.53;2.90;;;27.90;79.40;;;;;;5101023;28;20557;-72
2021/09/06 11:42:56;;;;;;;4.90;2.67;;;28.20;77.00;;;;;;5107550;28;20454;-73
2021/09/06 11:45:24;;;;;;;3.50;2.43;;;28.30;76.70;;;;;;5099634;28;20517;-73
2021/09/06 11:47:51;;;;;;;3.30;2.47;;;28.30;76.60;;;;;;5108715;28;20494;-74
2021/09/06 11:50:20;;;;;;;5.73;2.50;;;28.60;77.70;;;;;;5105628;28;20451;-74
2021/09/06 11:52:48;;;;;;;3.30;2.27;;;28.80;73.60;;;;;;5108257;28;20917;-73
2021/09/06 11:55:17;;;;;;;4.37;2.80;;;28.90;72.60;;;;;;5100614;28;20457;-74
2021/09/06 11:57:46;;;;;;;3.40;2.53;;;28.90;74.00;;;;;;5100366;28;20459;-75
2021/09/06 12:00:17;;;;;;;4.13;2.17;;;29.10;75.20;;;;;;5099881;28;20491;-74
2021/09/06 12:02:49;;;;;;;5.40;3.00;;;29.20;72.60;;;;;;5100334;28;20479;-74
2021/09/06 12:05:16;;;;;;;5.50;2.87;;;29.20;73.40;;;;;;5093001;28;20455;-75
2021/09/06 12:07:48;;;;;;;3.47;2.50;;;29.10;73.80;;;;;;5099307;28;20451;-74
2021/09/06 12:10:27;;;;;;;3.50;2.50;;;28.90;72.70;;;;;;5099120;28;20889;-74
2021/09/06 12:13:01;;;;;;;3.80;2.50;;;28.90;72.60;;;;;;5084740;28;20503;-74
2021/09/06 12:15:28;;;;;;;4.33;2.53;;;28.80;73.90;;;;;;5099461;28;20459;-74
2021/09/06 12:18:07;;;;;;;4.10;2.47;;;28.80;72.80;;;;;;5104189;28;20523;-77
2021/09/06 12:20:38;;;;;;;5.10;3.03;;;28.80;71.90;;;;;;5099720;28;20928;-75
2021/09/06 12:23:07;;;;;;;4.10;2.30;;;28.70;72.10;;;;;;5107177;28;20564;-75
2021/09/06 12:25:35;;;;;;;3.73;2.60;;;28.60;72.90;;;;;;5098391;28;20451;-73
2021/09/06 12:28:12;;;;;;;4.83;2.40;;;28.70;73.00;;;;;;5107443;28;20958;-77
2021/09/06 12:30:42;;;;;;;3.70;2.40;;;28.90;75.20;;;;;;5111915;28;20454;-72
2021/09/06 12:33:11;;;;;;;2.83;2.40;;;28.90;72.90;;;;;;5111867;28;20547;-74
2021/09/06 12:35:38;;;;;;;4.73;2.70;;;29.00;70.90;;;;;;5112150;28;20455;-73
2021/09/06 12:38:06;;;;;;;5.33;2.67;;;29.10;72.20;;;;;;5111954;28;20463;-73
2021/09/06 12:40:34;;;;;;;3.50;2.30;;;29.20;70.40;;;;;;5111812;28;20527;-73
2021/09/06 12:43:01;;;;;;;5.97;2.90;;;29.30;71.70;;;;;;5111565;28;20496;-73
2021/09/06 12:45:29;;;;;;;4.93;2.97;;;29.40;71.00;;;;;;5111679;28;20958;-76
2021/09/06 12:47:58;;;;;;;6.97;2.67;;;29.30;70.70;;;;;;5111666;28;20458;-73
2021/09/06 12:50:25;;;;;;;3.40;2.20;;;29.20;69.80;;;;;;5112157;28;20933;-74
2021/09/06 12:52:54;;;;;;;3.63;2.23;;;29.00;68.70;;;;;;5113308;28;20864;-75